Terminal Aerodrome Forecast
Issued by NWS Central Illinois

Home | Current Version | Previous Version | Text Only | Print | Product List | Glossary On
Versions: 1 2 3 4 5 6 7 8 9 10 11 12 13 14 15 16 17 18
290
FTUS43 KILX 281722
TAFSPI
TAF
KSPI 281722Z 2818/2918 35013G21KT P6SM BKN040
     FM290000 33007KT P6SM SCT100
     FM291000 34010KT P6SM BKN050
     FM291400 35012KT P6SM SCT025 BKN035
      TEMPO 2914/2918 BKN025=

USA.gov is the U.S. government's official web portal to all federal, state and local government web resources and services.